Pagina principale
METAR-TAF:

METAR-TAF

Aeroporti :

Aeroporto di Lugano-Agno

Lugano, Svizzera

latitudine: 46-00N, longitudine: 008-58E, altezza: 273 m

Osservazione

Il bollettino è stato emesso 15 minuti fa, alle 07:20 UTC
Vento 1 kt da direzioni variabili
Temperature -3°C
Umidità 86%
Pressione 1026 hPa
Visibilità: 8000 m

METAR: LSZA 220720Z VRB01KT 8000 NSC M03/M05 Q1026 NOSIG

Ora: 08:35 (07:35 UTC)

Previsione

Il bollettino è stato emesso 12 ore e 36 minuti fa, alle 18:59 UTC
Previsione valida dal 21 alle 18 UTC al 21 alle 24 UTC
Vento 1 kt da direzioni variabili
Visibilità: 7000 m
Probabilità 40%
dal 21 alle 20 UTC al 21 alle 24 UTC
Visibilità: 4500 m
foschia

TAF: LSZA 211859Z 2118/2124 VRB01KT 7000 NSC PROB40 2120/2124 4500 BR

Osservazioni e previsioni meteorologiche di più di 4000 aeroporti (messaggi METAR e TAF).

Le stazioni disponibili sono rappresentate dai dischi gialli e rossi sulla carta.

Puntare il mouse per vedere il nome della stazione.

Clicca sopra per visualizzare le osservazioni e previsioni meteorologiche.

Per cambiare la mappa : fare clic sui pulsanti verdi con una croce nera per ingrandire, il pulsante verde con un trattino per diminuire, o sulla freccia verde per le mappe adiacenti.


METAR-TAF: